createdAt,value
2022-09-11T00:01:34.304Z,24.63
2022-09-11T00:04:03.273Z,26.70
2022-09-11T00:06:31.020Z,27.98
2022-09-11T00:09:04.514Z,27.10
2022-09-11T00:11:40.405Z,27.52
2022-09-11T00:14:08.092Z,23.38
2022-09-11T00:16:39.103Z,24.92
2022-09-11T00:19:28.607Z,27.00
2022-09-11T00:21:57.224Z,25.80
2022-09-11T00:24:24.812Z,25.08
2022-09-11T00:26:52.278Z,26.02
2022-09-11T00:29:19.708Z,25.52
2022-09-11T00:31:49.140Z,24.40
2022-09-11T00:34:17.269Z,25.05
2022-09-11T00:36:44.733Z,24.52
2022-09-11T00:39:14.171Z,24.38
2022-09-11T00:41:44.989Z,24.38
2022-09-11T00:44:35.522Z,25.00
2022-09-11T00:47:09.060Z,25.83
2022-09-11T00:49:51.125Z,23.83
2022-09-11T00:52:27.208Z,25.98
2022-09-11T00:55:01.000Z,26.67
2022-09-11T00:57:33.561Z,23.83
2022-09-11T01:00:03.242Z,25.17
2022-09-11T01:02:34.806Z,24.80
2022-09-11T01:05:03.337Z,26.77
2022-09-11T01:07:32.099Z,26.55
2022-09-11T01:10:00.219Z,27.15
2022-09-11T01:12:43.580Z,27.45
2022-09-11T01:15:23.232Z,27.60
2022-09-11T01:18:00.355Z,26.67
2022-09-11T01:20:49.309Z,26.33
2022-09-11T01:23:34.950Z,27.40
2022-09-11T01:26:32.691Z,27.75
2022-09-11T01:29:30.169Z,26.67
2022-09-11T01:32:18.860Z,26.85
2022-09-11T01:35:04.340Z,27.95
2022-09-11T01:38:12.113Z,28.58
2022-09-11T01:40:49.253Z,26.17
2022-09-11T01:43:23.019Z,27.17
2022-09-11T01:45:53.146Z,28.17
2022-09-11T01:48:26.373Z,29.05
2022-09-11T01:50:57.039Z,27.65
2022-09-11T01:53:29.045Z,29.95
2022-09-11T01:56:06.677Z,27.08
2022-09-11T01:58:36.782Z,27.33
2022-09-11T02:01:37.928Z,27.52
2022-09-11T02:04:18.058Z,29.55
2022-09-11T02:06:53.928Z,28.75
2022-09-11T02:09:24.965Z,27.40
2022-09-11T02:11:55.797Z,27.88
2022-09-11T02:14:32.208Z,27.08
2022-09-11T02:17:05.315Z,26.98
2022-09-11T02:19:32.737Z,29.27
2022-09-11T02:22:00.603Z,26.83
2022-09-11T02:24:29.475Z,28.98
2022-09-11T02:27:02.680Z,26.98
2022-09-11T02:29:30.314Z,27.58
2022-09-11T02:31:57.898Z,28.70
2022-09-11T02:34:29.594Z,26.67
2022-09-11T02:37:21.269Z,26.33
2022-09-11T02:40:13.622Z,26.73
2022-09-11T02:43:05.941Z,26.00
2022-09-11T02:45:57.981Z,29.60
2022-09-11T02:49:17.119Z,29.65
2022-09-11T02:52:05.944Z,26.15
2022-09-11T02:54:43.805Z,29.92
2022-09-11T02:57:34.772Z,29.23
2022-09-11T03:00:05.634Z,32.38
2022-09-11T03:02:36.369Z,29.05
2022-09-11T03:05:05.054Z,29.25
2022-09-11T03:07:33.051Z,30.95
2022-09-11T03:10:00.545Z,31.58
2022-09-11T03:12:28.580Z,30.58
2022-09-11T03:14:57.091Z,30.63
2022-09-11T03:17:25.551Z,29.98
2022-09-11T03:19:52.970Z,30.30
2022-09-11T03:22:20.719Z,29.15
2022-09-11T03:24:48.169Z,29.67
2022-09-11T03:27:15.642Z,28.45
2022-09-11T03:29:43.900Z,28.98
2022-09-11T03:32:11.818Z,28.20
2022-09-11T03:34:39.290Z,30.48
2022-09-11T03:37:06.800Z,29.77
2022-09-11T03:39:34.460Z,28.30
2022-09-11T03:42:02.091Z,28.60
2022-09-11T03:44:29.565Z,31.00
2022-09-11T03:46:57.240Z,28.75
2022-09-11T03:49:24.752Z,28.88
2022-09-11T03:51:52.685Z,27.13
2022-09-11T03:54:20.913Z,29.77
2022-09-11T03:56:48.321Z,28.45
2022-09-11T03:59:15.798Z,31.25
2022-09-11T04:01:43.263Z,30.90
2022-09-11T04:04:10.779Z,29.15
2022-09-11T04:06:38.212Z,28.27
2022-09-11T04:09:05.674Z,28.65
2022-09-11T04:11:37.404Z,27.45
2022-09-11T04:14:05.577Z,29.00
2022-09-11T04:16:33.474Z,24.88
2022-09-11T04:19:04.493Z,26.80
2022-09-11T04:21:32.338Z,25.02
2022-09-11T04:24:00.501Z,24.63
2022-09-11T04:26:33.167Z,22.50
2022-09-11T04:29:01.255Z,25.48
2022-09-11T04:31:28.983Z,26.55
2022-09-11T04:33:58.186Z,25.90
2022-09-11T04:36:27.094Z,26.02
2022-09-11T04:38:57.799Z,27.80
2022-09-11T04:41:26.604Z,25.23
2022-09-11T04:44:03.901Z,26.85
2022-09-11T04:46:32.452Z,28.42
2022-09-11T04:49:00.261Z,27.92
2022-09-11T04:51:33.952Z,23.98
2022-09-11T04:54:02.220Z,23.63
2022-09-11T04:56:32.397Z,27.33
2022-09-11T04:59:02.489Z,25.90
2022-09-11T05:01:32.106Z,23.52
2022-09-11T05:04:00.568Z,26.27
2022-09-11T05:06:30.204Z,26.08
2022-09-11T05:09:01.610Z,26.38
2022-09-11T05:11:30.102Z,24.80
2022-09-11T05:13:59.942Z,26.50
2022-09-11T05:16:29.301Z,26.88
2022-09-11T05:18:59.237Z,25.50
2022-09-11T05:21:27.715Z,28.45
2022-09-11T05:23:57.874Z,27.30
2022-09-11T05:26:36.857Z,27.42
2022-09-11T05:29:12.918Z,28.55
2022-09-11T05:31:40.863Z,29.40
2022-09-11T05:34:09.698Z,28.80
2022-09-11T05:36:37.368Z,27.05
2022-09-11T05:39:05.694Z,27.98
2022-09-11T05:41:33.242Z,28.25
2022-09-11T05:44:00.711Z,27.45
2022-09-11T05:46:28.191Z,28.08
2022-09-11T05:48:55.667Z,27.17
2022-09-11T05:51:23.824Z,26.90
2022-09-11T05:53:56.785Z,25.02
2022-09-11T05:56:26.098Z,28.80
2022-09-11T05:58:54.016Z,24.65
2022-09-11T06:01:24.189Z,26.75
2022-09-11T06:03:51.889Z,25.40
2022-09-11T06:06:22.156Z,26.45
2022-09-11T06:08:51.778Z,25.52
2022-09-11T06:11:21.182Z,27.42
2022-09-11T06:13:49.504Z,28.20
2022-09-11T06:16:22.299Z,27.15
2022-09-11T06:18:51.648Z,26.60
2022-09-11T06:21:21.069Z,25.50
2022-09-11T06:23:53.246Z,25.75
2022-09-11T06:26:23.565Z,27.58
2022-09-11T06:28:51.945Z,26.70
2022-09-11T06:31:22.137Z,29.83
2022-09-11T06:33:51.019Z,28.92
2022-09-11T06:36:20.599Z,29.60
2022-09-11T06:38:53.235Z,26.90
2022-09-11T06:41:20.970Z,29.20
2022-09-11T06:43:49.173Z,31.23
2022-09-11T06:46:21.936Z,33.50
2022-09-11T06:48:51.185Z,33.22
2022-09-11T06:51:20.878Z,31.17
2022-09-11T06:53:48.696Z,31.98
2022-09-11T06:56:18.541Z,31.45
2022-09-11T06:58:46.769Z,32.22
2022-09-11T07:01:16.721Z,31.20
2022-09-11T07:03:46.068Z,31.20
2022-09-11T07:06:18.572Z,31.60
2022-09-11T07:08:52.133Z,29.75
2022-09-11T07:11:20.530Z,28.73
2022-09-11T07:13:48.103Z,28.95
2022-09-11T07:16:16.435Z,26.35
2022-09-11T07:18:46.420Z,25.40
2022-09-11T07:21:15.171Z,23.17
2022-09-11T07:23:44.113Z,23.30
2022-09-11T07:26:13.781Z,23.60
2022-09-11T07:28:41.614Z,22.05
2022-09-11T07:31:15.330Z,23.58
2022-09-11T07:33:48.684Z,19.70
2022-09-11T07:36:18.686Z,17.20
2022-09-11T07:38:47.878Z,17.98
2022-09-11T07:41:17.181Z,15.90
2022-09-11T07:43:46.319Z,14.85
2022-09-11T07:46:15.190Z,16.13
2022-09-11T07:48:43.450Z,13.75
2022-09-11T07:51:13.956Z,14.65
2022-09-11T07:53:44.163Z,14.32
2022-09-11T07:56:14.781Z,11.85
2022-09-11T07:58:44.079Z,11.63
2022-09-11T08:01:14.313Z,13.13
2022-09-11T08:03:43.067Z,12.70
2022-09-11T08:06:17.834Z,13.15
2022-09-11T08:08:48.956Z,11.27
2022-09-11T08:11:19.082Z,10.07
2022-09-11T08:13:51.954Z,9.43
2022-09-11T08:16:24.552Z,11.50
2022-09-11T08:18:52.316Z,11.60
2022-09-11T08:21:20.332Z,12.35
2022-09-11T08:23:48.980Z,11.23
2022-09-11T08:26:22.675Z,12.98
2022-09-11T08:28:52.111Z,11.75
2022-09-11T08:31:22.111Z,8.50
2022-09-11T08:33:50.202Z,4.78
2022-09-11T08:36:17.781Z,3.00
2022-09-11T08:38:46.486Z,2.60
2022-09-11T08:41:21.744Z,2.10
2022-09-11T08:43:56.600Z,2.88
2022-09-11T08:46:27.888Z,2.22
2022-09-11T08:49:03.305Z,3.35
2022-09-11T08:51:32.285Z,3.72
2022-09-11T08:54:01.940Z,2.50
2022-09-11T08:56:33.480Z,2.25
2022-09-11T08:59:06.757Z,1.95
2022-09-11T09:01:47.110Z,1.55
2022-09-11T09:04:33.043Z,1.35
2022-09-11T09:07:22.814Z,1.17
2022-09-11T09:10:02.151Z,1.70
2022-09-11T09:12:45.384Z,1.52
2022-09-11T09:15:36.995Z,2.08
2022-09-11T09:18:11.702Z,1.08
2022-09-11T09:20:47.550Z,2.00
2022-09-11T09:23:21.981Z,1.17
2022-09-11T09:25:52.698Z,1.10
2022-09-11T09:28:21.912Z,0.90
2022-09-11T09:30:57.264Z,1.00
2022-09-11T09:33:39.907Z,0.90
2022-09-11T09:36:18.942Z,0.90
2022-09-11T09:38:47.034Z,1.00
2022-09-11T09:41:45.509Z,1.13
2022-09-11T09:44:29.933Z,0.90
2022-09-11T09:46:57.492Z,1.55
2022-09-11T09:49:34.957Z,0.60
2022-09-11T09:52:16.666Z,0.80
2022-09-11T09:54:44.976Z,0.70
2022-09-11T09:57:13.699Z,0.77
2022-09-11T09:59:46.830Z,0.80
2022-09-11T10:02:14.394Z,1.00
2022-09-11T10:04:41.893Z,0.73
2022-09-11T10:07:12.330Z,1.23
2022-09-11T10:09:47.532Z,0.80
2022-09-11T10:12:22.810Z,0.90
2022-09-11T10:15:03.098Z,1.20
2022-09-11T10:17:31.196Z,0.93
2022-09-11T10:20:18.512Z,0.90
2022-09-11T10:22:49.601Z,0.80
2022-09-11T10:25:26.505Z,0.70
2022-09-11T10:28:14.284Z,0.70
2022-09-11T10:30:49.470Z,0.70
2022-09-11T10:33:41.566Z,1.08
2022-09-11T10:36:10.951Z,0.77
2022-09-11T10:38:48.180Z,0.95
2022-09-11T10:41:15.907Z,1.35
2022-09-11T10:44:05.463Z,1.02
2022-09-11T10:46:43.394Z,1.20
2022-09-11T10:49:21.921Z,1.00
2022-09-11T10:52:15.802Z,1.17
2022-09-11T10:55:08.593Z,1.00
2022-09-11T10:57:49.890Z,1.17
2022-09-11T11:00:20.357Z,0.80
2022-09-11T11:02:51.401Z,0.77
2022-09-11T11:05:54.029Z,0.80
2022-09-11T11:08:36.523Z,0.90
2022-09-11T11:11:22.266Z,1.10
2022-09-11T11:13:55.620Z,1.20
2022-09-11T11:16:45.408Z,1.48
2022-09-11T11:19:31.355Z,0.90
2022-09-11T11:21:58.794Z,1.10
2022-09-11T11:24:38.248Z,1.00
2022-09-11T11:27:08.688Z,0.95
2022-09-11T11:29:50.532Z,1.30
2022-09-11T11:32:27.975Z,0.95
2022-09-11T11:35:18.179Z,2.17
2022-09-11T11:37:49.126Z,1.17
2022-09-11T11:40:24.751Z,1.50
2022-09-11T11:43:17.471Z,1.00
2022-09-11T11:45:50.767Z,0.90
2022-09-11T11:48:29.323Z,1.17
2022-09-11T11:51:06.873Z,1.20
2022-09-11T11:53:49.339Z,0.90
2022-09-11T11:56:42.826Z,0.93
2022-09-11T11:59:24.469Z,0.80
2022-09-11T12:01:59.837Z,0.75
2022-09-11T12:04:36.436Z,1.00
2022-09-11T12:07:05.721Z,1.13
2022-09-11T12:09:34.116Z,0.90
2022-09-11T12:12:07.479Z,0.80
2022-09-11T12:14:35.147Z,0.88
2022-09-11T12:17:28.480Z,1.52
2022-09-11T12:20:11.155Z,0.80
2022-09-11T12:22:38.968Z,0.90
2022-09-11T12:25:21.776Z,0.70
2022-09-11T12:27:49.746Z,0.70
2022-09-11T12:30:17.415Z,0.80
2022-09-11T12:32:53.697Z,0.77
2022-09-11T12:35:32.864Z,1.20
2022-09-11T12:38:13.609Z,1.02
2022-09-11T12:40:58.502Z,1.00
2022-09-11T12:43:31.883Z,1.20
2022-09-11T12:45:59.898Z,1.00
2022-09-11T12:48:56.179Z,1.25
2022-09-11T12:51:42.895Z,0.90
2022-09-11T12:54:22.683Z,0.93
2022-09-11T12:57:02.269Z,1.00
2022-09-11T12:59:39.585Z,1.38
2022-09-11T13:02:26.877Z,0.90
2022-09-11T13:04:56.383Z,1.10
2022-09-11T13:07:46.311Z,0.93
2022-09-11T13:10:33.414Z,0.75
2022-09-11T13:13:03.292Z,0.80
2022-09-11T13:15:42.467Z,1.10
2022-09-11T13:18:32.154Z,1.25
2022-09-11T13:21:14.721Z,0.82
2022-09-11T13:23:43.169Z,0.95
2022-09-11T13:26:18.995Z,1.08
2022-09-11T13:28:49.303Z,1.20
2022-09-11T13:31:26.897Z,1.00
2022-09-11T13:33:55.218Z,1.33
2022-09-11T13:36:25.621Z,1.05
2022-09-11T13:39:00.241Z,0.93
2022-09-11T13:41:32.196Z,1.00
2022-09-11T13:44:02.250Z,1.00
2022-09-11T13:46:32.290Z,0.77
2022-09-11T13:49:13.444Z,0.90
2022-09-11T13:51:45.780Z,1.30
2022-09-11T13:54:24.476Z,1.10
2022-09-11T13:56:58.037Z,1.02
2022-09-11T13:59:26.361Z,0.70
2022-09-11T14:02:00.834Z,0.80
2022-09-11T14:04:31.093Z,1.02
2022-09-11T14:06:58.761Z,1.63
2022-09-11T14:09:26.274Z,1.30
2022-09-11T14:11:53.849Z,0.80
2022-09-11T14:14:29.097Z,0.85
2022-09-11T14:17:01.328Z,1.10
2022-09-11T14:19:32.788Z,1.08
2022-09-11T14:22:02.437Z,1.00
2022-09-11T14:24:32.689Z,1.00
2022-09-11T14:27:01.987Z,1.00
2022-09-11T14:29:37.446Z,1.27
2022-09-11T14:32:37.025Z,1.02
2022-09-11T14:35:07.385Z,0.95
2022-09-11T14:37:40.803Z,0.95
2022-09-11T14:40:16.377Z,1.15
2022-09-11T14:42:44.350Z,0.93
2022-09-11T14:45:19.272Z,1.10
2022-09-11T14:47:46.748Z,0.80
2022-09-11T14:50:14.417Z,1.00
2022-09-11T14:52:43.276Z,1.13
2022-09-11T14:55:19.186Z,0.90
2022-09-11T14:57:47.492Z,0.93
2022-09-11T15:00:16.352Z,1.23
2022-09-11T15:02:43.944Z,0.93
2022-09-11T15:05:16.104Z,2.08
2022-09-11T15:07:45.434Z,1.20
2022-09-11T15:10:14.085Z,1.10
2022-09-11T15:12:42.562Z,1.10
2022-09-11T15:15:10.620Z,0.95
2022-09-11T15:17:38.353Z,0.90
2022-09-11T15:20:09.091Z,1.10
2022-09-11T15:22:38.159Z,1.00
2022-09-11T15:25:06.235Z,1.40
2022-09-11T15:27:33.979Z,1.00
2022-09-11T15:30:01.626Z,1.00
2022-09-11T15:32:29.135Z,1.70
2022-09-11T15:34:56.688Z,1.15
2022-09-11T15:37:25.509Z,1.30
2022-09-11T15:39:53.095Z,1.27
2022-09-11T15:42:20.606Z,1.45
2022-09-11T15:44:50.577Z,1.08
2022-09-11T15:47:18.034Z,1.20
2022-09-11T15:49:47.854Z,1.02
2022-09-11T15:52:15.586Z,1.40
2022-09-11T15:54:45.440Z,1.02
2022-09-11T15:57:13.279Z,1.42
2022-09-11T15:59:40.939Z,0.90
2022-09-11T16:02:09.257Z,1.13
2022-09-11T16:04:37.288Z,1.23
2022-09-11T16:07:05.201Z,1.15
2022-09-11T16:09:33.485Z,0.90
2022-09-11T16:12:02.097Z,0.90
2022-09-11T16:14:35.322Z,1.08
2022-09-11T16:17:05.461Z,1.10
2022-09-11T16:19:33.384Z,1.23
2022-09-11T16:22:03.494Z,1.42
2022-09-11T16:24:37.634Z,0.95
2022-09-11T16:27:07.781Z,0.90
2022-09-11T16:30:25.789Z,1.42
2022-09-11T16:32:31.401Z,1.20
2022-09-11T16:34:59.743Z,1.00
2022-09-11T16:37:28.149Z,1.00
2022-09-11T16:39:55.679Z,1.15
2022-09-11T16:42:23.226Z,0.90
2022-09-11T16:44:50.759Z,3.20
2022-09-11T16:47:20.068Z,1.30
2022-09-11T16:50:06.350Z,1.65
2022-09-11T16:52:35.081Z,1.45
2022-09-11T16:55:02.684Z,1.20
2022-09-11T16:57:30.992Z,1.20
2022-09-11T16:59:58.499Z,1.40
2022-09-11T17:02:26.502Z,1.00
2022-09-11T17:04:54.000Z,0.90
2022-09-11T17:07:21.740Z,1.25
2022-09-11T17:09:49.235Z,2.20
2022-09-11T17:12:17.647Z,1.75
2022-09-11T17:14:45.101Z,1.50
2022-09-11T17:17:12.632Z,2.78
2022-09-11T17:19:40.360Z,1.67
2022-09-11T17:22:08.396Z,1.73
2022-09-11T17:24:36.303Z,1.55
2022-09-11T17:27:04.059Z,1.10
2022-09-11T17:29:31.578Z,1.35
2022-09-11T17:32:23.792Z,1.33
2022-09-11T17:34:46.939Z,1.83
2022-09-11T17:37:15.767Z,1.40
2022-09-11T17:39:43.348Z,1.77
2022-09-11T17:42:13.167Z,1.30
2022-09-11T17:44:43.123Z,1.20
2022-09-11T17:47:10.792Z,1.15
2022-09-11T17:49:38.998Z,2.08
2022-09-11T17:52:07.241Z,1.50
2022-09-11T17:54:34.650Z,1.65
2022-09-11T17:57:02.110Z,1.42
2022-09-11T17:59:29.586Z,1.10
2022-09-11T18:02:00.949Z,1.58
2022-09-11T18:04:28.577Z,1.63
2022-09-11T18:06:56.080Z,1.50
2022-09-11T18:09:23.756Z,1.90
2022-09-11T18:11:53.824Z,1.90
2022-09-11T18:14:21.587Z,1.70
2022-09-11T18:16:49.234Z,1.60
2022-09-11T18:19:20.215Z,1.65
2022-09-11T18:21:50.356Z,1.10
2022-09-11T18:24:20.793Z,1.70
2022-09-11T18:26:50.753Z,1.38
2022-09-11T18:29:20.281Z,1.60
2022-09-11T18:31:51.636Z,1.42
2022-09-11T18:34:21.870Z,1.52
2022-09-11T18:36:49.748Z,2.33
2022-09-11T18:39:18.698Z,1.48
2022-09-11T18:41:47.717Z,1.70
2022-09-11T18:44:19.885Z,1.70
2022-09-11T18:46:48.218Z,2.40
2022-09-11T18:49:16.581Z,1.98
2022-09-11T18:51:44.176Z,2.50
2022-09-11T18:54:16.613Z,2.10
2022-09-11T18:56:45.441Z,1.92
2022-09-11T18:59:14.092Z,2.33
2022-09-11T19:01:42.320Z,2.08
2022-09-11T19:04:12.070Z,2.72
2022-09-11T19:06:40.309Z,2.53
2022-09-11T19:09:12.590Z,3.03
2022-09-11T19:11:40.350Z,3.05
2022-09-11T19:14:10.201Z,2.70
2022-09-11T19:16:38.226Z,2.38
2022-09-11T19:19:07.327Z,2.85
2022-09-11T19:21:35.189Z,2.85
2022-09-11T19:24:02.893Z,3.25
2022-09-11T19:26:33.698Z,2.50
2022-09-11T19:29:01.903Z,3.00
2022-09-11T19:31:30.546Z,2.60
2022-09-11T19:34:00.827Z,3.00
2022-09-11T19:36:34.294Z,3.55
2022-09-11T19:39:02.591Z,3.13
2022-09-11T19:41:35.261Z,3.10
2022-09-11T19:44:03.946Z,3.50
2022-09-11T19:46:33.698Z,3.65
2022-09-11T19:49:03.746Z,3.38
2022-09-11T19:51:33.743Z,3.72
2022-09-11T19:54:02.597Z,3.97
2022-09-11T19:56:31.178Z,3.97
2022-09-11T19:59:00.324Z,4.18
2022-09-11T20:01:29.987Z,4.88
2022-09-11T20:04:00.384Z,4.50
2022-09-11T20:06:31.632Z,4.57
2022-09-11T20:09:27.264Z,5.15
2022-09-11T20:11:47.896Z,5.18
2022-09-11T20:14:15.397Z,4.95
2022-09-11T20:16:42.971Z,6.10
2022-09-11T20:19:11.081Z,6.38
2022-09-11T20:21:39.308Z,7.50
2022-09-11T20:24:07.527Z,6.03
2022-09-11T20:26:35.343Z,7.60
2022-09-11T20:29:09.481Z,7.65
2022-09-11T20:31:46.536Z,7.40
2022-09-11T20:34:16.134Z,7.38
2022-09-11T20:36:43.749Z,8.82
2022-09-11T20:39:12.878Z,9.60
2022-09-11T20:41:40.457Z,7.78
2022-09-11T20:44:08.038Z,8.90
2022-09-11T20:46:35.625Z,11.65
2022-09-11T20:49:09.139Z,12.38
2022-09-11T20:51:36.629Z,11.00
2022-09-11T20:54:04.198Z,12.38
2022-09-11T20:56:32.077Z,10.77
2022-09-11T20:59:00.618Z,11.13
2022-09-11T21:01:32.301Z,11.52
2022-09-11T21:04:01.145Z,12.10
2022-09-11T21:06:32.186Z,12.35
2022-09-11T21:09:02.602Z,12.73
2022-09-11T21:11:31.202Z,12.82
2022-09-11T21:13:58.809Z,14.82
2022-09-11T21:16:26.277Z,14.68
2022-09-11T21:18:56.243Z,13.70
2022-09-11T21:21:25.318Z,14.25
2022-09-11T21:23:57.006Z,14.25
2022-09-11T21:26:26.155Z,13.95
2022-09-11T21:28:53.861Z,14.77
2022-09-11T21:31:21.536Z,16.52
2022-09-11T21:33:49.321Z,15.48
2022-09-11T21:36:17.876Z,13.63
2022-09-11T21:38:45.480Z,17.63
2022-09-11T21:41:14.561Z,17.30
2022-09-11T21:43:42.137Z,17.23
2022-09-11T21:46:10.694Z,18.20
2022-09-11T21:48:40.438Z,17.55
2022-09-11T21:51:18.541Z,18.35
2022-09-11T21:53:47.903Z,18.45
2022-09-11T21:56:20.794Z,20.70
2022-09-11T21:58:51.069Z,20.83
2022-09-11T22:01:20.293Z,21.13
2022-09-11T22:03:47.933Z,17.58
2022-09-11T22:06:15.620Z,18.75
2022-09-11T22:08:46.122Z,22.20
2022-09-11T22:11:15.020Z,21.15
2022-09-11T22:13:42.642Z,20.17
2022-09-11T22:16:13.107Z,22.13
2022-09-11T22:18:41.646Z,23.48
2022-09-11T22:21:10.329Z,22.65
2022-09-11T22:23:37.789Z,24.27
2022-09-11T22:26:24.387Z,21.75
2022-09-11T22:28:52.949Z,22.50
2022-09-11T22:31:23.910Z,22.77
2022-09-11T22:33:52.193Z,24.58
2022-09-11T22:36:23.520Z,25.67
2022-09-11T22:38:51.271Z,23.43
2022-09-11T22:41:19.039Z,25.25
2022-09-11T22:43:48.802Z,23.63
2022-09-11T22:46:17.108Z,23.35
2022-09-11T22:48:44.813Z,25.25
2022-09-11T22:51:12.751Z,25.95
2022-09-11T22:53:40.596Z,22.98
2022-09-11T22:56:09.404Z,23.33
2022-09-11T22:58:38.311Z,25.58
2022-09-11T23:01:09.469Z,25.50
2022-09-11T23:03:37.770Z,26.07
2022-09-11T23:06:23.691Z,26.33
2022-09-11T23:08:52.292Z,27.45
2022-09-11T23:11:21.957Z,26.85
2022-09-11T23:13:52.107Z,27.08
2022-09-11T23:16:22.592Z,26.70
2022-09-11T23:18:55.006Z,28.88
2022-09-11T23:21:22.894Z,27.83
2022-09-11T23:23:54.944Z,28.52
2022-09-11T23:26:23.281Z,28.58
2022-09-11T23:28:51.635Z,27.38
2022-09-11T23:31:28.661Z,28.83
2022-09-11T23:33:59.073Z,29.98
2022-09-11T23:36:27.310Z,28.13
2022-09-11T23:38:54.982Z,28.92
2022-09-11T23:41:23.457Z,31.67
2022-09-11T23:43:51.396Z,31.20
2022-09-11T23:46:18.846Z,30.00
2022-09-11T23:48:46.773Z,31.08
2022-09-11T23:51:15.592Z,31.73
2022-09-11T23:53:44.995Z,30.60
2022-09-11T23:56:15.033Z,30.25
2022-09-11T23:58:45.199Z,32.45
